Time;durP1;ratioP1;P1;durP2;ratioP2;P2;SDS_P1;SDS_P2;PMS_P1;PMS_P2;Temp;Humidity;BMP_temperature;BMP_pressure;BME280_temperature;BME280_humidity;BME280_pressure;Samples;Min_cycle;Max_cycle;Signal;HPM_P1;HPM_P2
2021/01/22 00:00:17;;;;;;;3.90;1.88;;;10.00;99.90;;;;;;5011924;28;20108;-63
2021/01/22 00:02:43;;;;;;;2.75;1.50;;;10.30;99.90;;;;;;5010964;28;20045;-61
2021/01/22 00:05:10;;;;;;;2.03;1.08;;;10.30;99.90;;;;;;5012238;28;20030;-61
2021/01/22 00:07:36;;;;;;;2.28;1.00;;;10.40;99.90;;;;;;5027310;28;20034;-62
2021/01/22 00:10:03;;;;;;;2.50;1.05;;;10.30;99.90;;;;;;5012027;28;20105;-62
2021/01/22 00:12:29;;;;;;;1.70;1.00;;;10.40;99.90;;;;;;5011043;28;20076;-61
2021/01/22 00:14:55;;;;;;;2.53;1.30;;;10.40;99.90;;;;;;5011996;28;20030;-62
2021/01/22 00:17:21;;;;;;;2.00;1.00;;;10.40;99.90;;;;;;5012006;28;20153;-62
2021/01/22 00:19:47;;;;;;;2.78;1.15;;;10.50;99.90;;;;;;5010889;28;20105;-62
2021/01/22 00:22:13;;;;;;;5.95;0.98;;;10.50;99.90;;;;;;5012102;28;20034;-62
2021/01/22 00:24:39;;;;;;;4.07;1.50;;;10.60;99.90;;;;;;5011807;28;20057;-62
2021/01/22 00:27:05;;;;;;;2.33;1.20;;;10.60;99.90;;;;;;5012040;28;20034;-62
2021/01/22 00:29:30;;;;;;;2.22;1.00;;;10.60;99.90;;;;;;5014446;28;20075;-62
2021/01/22 00:31:57;;;;;;;3.17;1.23;;;10.60;99.90;;;;;;5015362;28;20053;-61
2021/01/22 00:34:22;;;;;;;2.45;1.35;;;10.60;99.90;;;;;;5014330;28;20029;-61
2021/01/22 00:36:49;;;;;;;2.05;1.25;;;10.70;99.90;;;;;;5015198;28;20080;-63
2021/01/22 00:39:15;;;;;;;3.15;1.35;;;10.70;99.90;;;;;;5015309;28;20041;-62
2021/01/22 00:41:41;;;;;;;8.20;1.40;;;10.80;99.90;;;;;;5015383;28;20041;-62
2021/01/22 00:44:07;;;;;;;2.25;1.10;;;10.70;99.90;;;;;;5015193;28;20033;-62
2021/01/22 00:46:33;;;;;;;2.47;1.20;;;10.70;99.90;;;;;;5015313;28;20057;-62
2021/01/22 00:48:59;;;;;;;2.22;1.10;;;10.80;99.90;;;;;;5015038;28;20041;-61
2021/01/22 00:51:25;;;;;;;1.23;0.73;;;10.80;99.90;;;;;;5015453;28;20022;-62
2021/01/22 00:53:51;;;;;;;2.83;0.90;;;10.90;99.90;;;;;;5015141;28;20038;-62
2021/01/22 00:56:17;;;;;;;2.03;0.90;;;11.00;99.90;;;;;;5014713;28;20072;-62
2021/01/22 00:58:43;;;;;;;1.95;0.82;;;11.00;99.90;;;;;;5015278;28;20022;-62
2021/01/22 01:01:09;;;;;;;1.30;0.50;;;11.00;99.90;;;;;;5014860;28;20034;-62
2021/01/22 01:03:35;;;;;;;0.85;0.30;;;11.10;99.90;;;;;;5014960;28;20036;-62
2021/01/22 01:06:00;;;;;;;0.60;0.30;;;11.30;99.90;;;;;;5013614;28;20077;-62
2021/01/22 01:08:26;;;;;;;2.30;0.40;;;11.40;99.90;;;;;;5014899;28;20056;-62
2021/01/22 01:10:52;;;;;;;1.05;0.38;;;11.40;99.90;;;;;;5015149;28;20038;-62
2021/01/22 01:13:18;;;;;;;0.22;0.13;;;11.40;99.90;;;;;;5013399;28;20034;-61
2021/01/22 01:15:44;;;;;;;0.30;0.20;;;11.40;99.90;;;;;;5014705;28;20045;-62
2021/01/22 01:18:10;;;;;;;1.85;0.30;;;11.40;99.90;;;;;;5014889;28;20060;-62
2021/01/22 01:20:36;;;;;;;0.45;0.30;;;11.40;99.90;;;;;;5014628;28;20026;-62
2021/01/22 01:23:02;;;;;;;0.88;0.35;;;11.40;99.90;;;;;;5013279;28;20096;-62
2021/01/22 01:25:28;;;;;;;0.63;0.32;;;11.30;99.90;;;;;;5014442;28;20037;-62
2021/01/22 01:27:54;;;;;;;0.35;0.20;;;11.20;99.90;;;;;;5014569;28;20041;-62
2021/01/22 01:30:20;;;;;;;1.40;0.47;;;11.20;99.90;;;;;;5014630;28;20041;-62
2021/01/22 01:32:46;;;;;;;0.52;0.20;;;11.10;99.90;;;;;;5013199;28;20025;-62
2021/01/22 01:35:12;;;;;;;0.10;0.10;;;11.10;99.90;;;;;;5012998;28;20107;-62
2021/01/22 01:37:38;;;;;;;0.68;0.30;;;11.10;99.90;;;;;;5014551;28;20037;-62
2021/01/22 01:40:05;;;;;;;0.70;0.20;;;11.00;99.90;;;;;;5013637;28;20038;-62
2021/01/22 01:42:31;;;;;;;0.45;0.20;;;10.90;99.90;;;;;;5014561;28;20048;-62
2021/01/22 01:44:57;;;;;;;0.98;0.30;;;10.90;99.90;;;;;;5014394;28;20121;-62
2021/01/22 01:47:23;;;;;;;0.35;0.25;;;10.80;99.90;;;;;;5014336;28;20391;-62
2021/01/22 01:49:49;;;;;;;0.63;0.30;;;10.80;99.90;;;;;;5014085;28;20048;-62
2021/01/22 01:52:15;;;;;;;5.07;0.60;;;10.80;99.90;;;;;;5014225;28;20056;-62
2021/01/22 01:54:42;;;;;;;0.30;0.30;;;10.70;99.90;;;;;;5012583;28;20102;-62
2021/01/22 01:57:09;;;;;;;0.52;0.30;;;10.60;99.90;;;;;;5014060;28;20033;-63
2021/01/22 01:59:35;;;;;;;1.55;0.65;;;10.50;99.90;;;;;;5012936;28;20025;-61
2021/01/22 02:02:02;;;;;;;1.20;0.50;;;10.40;99.90;;;;;;5013835;28;20039;-61
2021/01/22 02:04:27;;;;;;;3.22;0.57;;;10.40;99.90;;;;;;5013800;28;20032;-61
2021/01/22 02:06:53;;;;;;;0.75;0.45;;;10.40;99.90;;;;;;5013809;28;20124;-62
2021/01/22 02:09:19;;;;;;;1.30;0.40;;;10.40;99.90;;;;;;5013587;28;20026;-62
2021/01/22 02:11:46;;;;;;;1.42;0.52;;;10.50;99.90;;;;;;5012414;28;20095;-61
2021/01/22 02:14:12;;;;;;;1.25;0.50;;;10.50;99.90;;;;;;5012296;28;20030;-61
2021/01/22 02:16:38;;;;;;;0.75;0.50;;;10.50;99.90;;;;;;5013583;28;20073;-61
2021/01/22 02:19:09;;;;;;;1.35;0.55;;;10.50;99.90;;;;;;5012440;28;20034;-62
2021/01/22 02:21:37;;;;;;;1.20;0.77;;;10.50;99.90;;;;;;5012598;28;20026;-62
2021/01/22 02:24:20;;;;;;;0.98;0.50;;;10.60;99.90;;;;;;5012446;28;20226;-62
2021/01/22 02:26:56;;;;;;;1.48;0.50;;;10.60;99.90;;;;;;5012575;28;20034;-62
2021/01/22 02:29:23;;;;;;;1.02;0.38;;;10.60;99.90;;;;;;5011959;28;20034;-62
2021/01/22 02:31:53;;;;;;;0.85;0.50;;;10.70;99.90;;;;;;5012141;28;20030;-62
2021/01/22 02:34:25;;;;;;;1.90;0.57;;;10.70;99.90;;;;;;5011917;28;20034;-61
2021/01/22 02:36:57;;;;;;;1.48;0.50;;;10.80;99.90;;;;;;5012440;28;20030;-62
2021/01/22 02:39:36;;;;;;;1.70;0.70;;;10.90;99.90;;;;;;5012230;28;20104;-62
2021/01/22 02:42:04;;;;;;;1.42;0.70;;;10.90;99.90;;;;;;5012204;28;20034;-62
2021/01/22 02:44:31;;;;;;;1.75;0.60;;;11.00;99.90;;;;;;5013144;28;20038;-62
2021/01/22 02:47:06;;;;;;;1.25;0.80;;;11.10;99.90;;;;;;5011768;28;20048;-62
2021/01/22 02:49:32;;;;;;;1.08;0.32;;;11.10;99.90;;;;;;5011821;28;20030;-62
2021/01/22 02:52:00;;;;;;;1.40;0.63;;;11.10;99.90;;;;;;5012091;28;20111;-62
2021/01/22 02:54:26;;;;;;;2.30;0.50;;;11.20;99.90;;;;;;5012522;28;20133;-62
2021/01/22 02:57:11;;;;;;;3.45;0.70;;;11.20;99.90;;;;;;5011684;28;20037;-61
2021/01/22 03:00:16;;;;;;;1.20;0.50;;;11.30;99.90;;;;;;5011686;28;20117;-62
2021/01/22 03:02:59;;;;;;;1.63;0.68;;;11.30;99.90;;;;;;5012119;28;20030;-61
2021/01/22 03:05:29;;;;;;;1.45;0.57;;;11.40;99.90;;;;;;5011525;28;20058;-62
2021/01/22 03:08:00;;;;;;;6.07;1.25;;;11.40;99.90;;;;;;5012859;28;20038;-62
2021/01/22 03:10:28;;;;;;;3.97;1.00;;;11.40;99.90;;;;;;5011451;28;20041;-62
2021/01/22 03:12:57;;;;;;;0.70;0.40;;;11.50;99.90;;;;;;5012900;28;20030;-62
2021/01/22 03:15:24;;;;;;;1.15;0.60;;;11.50;99.90;;;;;;5011202;28;20026;-62
2021/01/22 03:17:50;;;;;;;0.88;0.50;;;11.60;99.90;;;;;;5012569;28;20030;-62
2021/01/22 03:20:21;;;;;;;2.70;0.77;;;11.60;99.90;;;;;;5012411;28;20029;-61
2021/01/22 03:22:47;;;;;;;3.63;0.75;;;11.60;99.90;;;;;;5011569;28;20038;-62
2021/01/22 03:25:13;;;;;;;2.63;0.70;;;11.60;99.90;;;;;;5012375;28;20025;-62
2021/01/22 03:27:40;;;;;;;3.58;0.70;;;11.60;99.90;;;;;;5012438;28;20076;-62
2021/01/22 03:30:07;;;;;;;2.22;0.90;;;11.50;99.90;;;;;;5011519;28;20076;-62
2021/01/22 03:32:34;;;;;;;2.28;0.60;;;11.50;99.90;;;;;;5012398;28;20021;-61
2021/01/22 03:34:59;;;;;;;3.30;0.93;;;11.60;99.90;;;;;;5011216;28;20034;-61
2021/01/22 03:37:25;;;;;;;3.25;0.57;;;11.60;99.90;;;;;;5011319;28;20033;-62
2021/01/22 03:39:51;;;;;;;2.03;0.65;;;11.50;99.90;;;;;;5012235;28;20183;-61
2021/01/22 03:42:17;;;;;;;2.38;0.80;;;11.40;99.90;;;;;;5012238;28;20073;-61
2021/01/22 03:44:43;;;;;;;2.55;0.80;;;11.40;99.90;;;;;;5012311;28;20030;-61
2021/01/22 03:47:09;;;;;;;4.43;0.80;;;11.40;99.90;;;;;;5012268;28;20034;-62
2021/01/22 03:49:35;;;;;;;4.40;0.90;;;11.40;99.90;;;;;;5012268;28;20038;-62
2021/01/22 03:52:02;;;;;;;1.98;0.70;;;11.40;99.90;;;;;;5012173;28;20124;-62
2021/01/22 03:54:28;;;;;;;1.52;0.70;;;11.40;99.90;;;;;;5010684;28;20050;-62
2021/01/22 03:56:55;;;;;;;5.60;1.35;;;11.40;99.90;;;;;;5012165;28;20041;-61
2021/01/22 03:59:21;;;;;;;3.83;0.60;;;11.40;99.90;;;;;;5012203;28;20041;-62
2021/01/22 04:01:47;;;;;;;4.78;1.15;;;11.40;99.90;;;;;;5012163;28;20038;-62
2021/01/22 04:04:13;;;;;;;2.92;0.93;;;11.40;99.90;;;;;;5014229;28;20044;-61
2021/01/22 04:06:39;;;;;;;1.00;0.50;;;11.40;99.90;;;;;;5016040;28;20163;-62
2021/01/22 04:09:05;;;;;;;3.22;0.60;;;11.40;99.90;;;;;;5015981;28;20135;-61
2021/01/22 04:11:32;;;;;;;4.47;0.90;;;11.30;99.90;;;;;;5015847;28;20037;-62
2021/01/22 04:13:58;;;;;;;2.25;0.80;;;11.30;99.90;;;;;;5015959;28;20029;-61
2021/01/22 04:16:24;;;;;;;6.13;0.85;;;11.30;99.90;;;;;;5030963;28;20044;-61
2021/01/22 04:18:50;;;;;;;3.97;1.05;;;11.20;99.90;;;;;;5015805;28;20030;-61
2021/01/22 04:21:16;;;;;;;5.60;1.15;;;11.20;99.90;;;;;;5031142;28;20026;-62
2021/01/22 04:23:42;;;;;;;2.65;0.63;;;11.20;99.90;;;;;;5015693;28;20058;-62
2021/01/22 04:26:07;;;;;;;3.83;0.70;;;11.30;99.90;;;;;;5014526;28;20113;-62
2021/01/22 04:28:33;;;;;;;3.38;0.65;;;11.20;99.90;;;;;;5015489;28;20080;-62
2021/01/22 04:30:59;;;;;;;3.78;0.88;;;11.30;99.90;;;;;;5014435;28;20049;-62
2021/01/22 04:33:25;;;;;;;2.35;0.50;;;11.30;99.90;;;;;;5015586;28;20022;-62
2021/01/22 04:35:51;;;;;;;3.83;0.80;;;11.30;99.90;;;;;;5015409;28;20132;-62
2021/01/22 04:38:19;;;;;;;4.40;0.90;;;11.20;99.90;;;;;;5014207;28;20088;-62
2021/01/22 04:40:45;;;;;;;2.42;0.68;;;11.20;99.90;;;;;;5015206;28;20076;-61
2021/01/22 04:43:11;;;;;;;2.65;0.90;;;11.20;99.90;;;;;;5012771;28;20052;-61
2021/01/22 04:45:37;;;;;;;2.58;0.73;;;11.10;99.90;;;;;;5050037;28;20025;-61
2021/01/22 04:48:08;;;;;;;1.80;0.90;;;11.10;99.90;;;;;;5033863;28;20379;-67
2021/01/22 04:50:36;;;;;;;4.93;1.02;;;11.10;99.90;;;;;;5034939;28;20041;-62
2021/01/22 04:53:07;;;;;;;5.15;1.10;;;11.00;99.90;;;;;;5036327;28;20112;-61
2021/01/22 04:55:35;;;;;;;2.05;0.82;;;11.00;99.90;;;;;;5032925;28;20041;-61
2021/01/22 04:58:04;;;;;;;10.38;1.13;;;10.90;99.90;;;;;;5033884;28;20065;-61
2021/01/22 05:00:30;;;;;;;1.67;0.55;;;10.80;99.90;;;;;;5033478;28;20025;-62
2021/01/22 05:02:57;;;;;;;1.40;0.63;;;10.80;99.90;;;;;;5017188;28;20036;-61
2021/01/22 05:05:24;;;;;;;4.57;0.95;;;10.80;99.90;;;;;;5034537;28;20038;-62
2021/01/22 05:07:50;;;;;;;6.30;0.75;;;10.80;99.90;;;;;;5033705;28;20033;-60
2021/01/22 05:10:16;;;;;;;7.07;1.20;;;10.70;99.90;;;;;;5034724;28;20033;-61
2021/01/22 05:12:42;;;;;;;1.58;0.65;;;10.80;99.90;;;;;;5034528;28;20071;-61
2021/01/22 05:15:26;;;;;;;1.75;0.93;;;10.80;99.90;;;;;;5033682;28;20113;-61
2021/01/22 05:18:04;;;;;;;4.15;0.95;;;10.70;99.90;;;;;;5039300;28;20033;-61
2021/01/22 05:20:36;;;;;;;4.53;0.88;;;10.80;99.90;;;;;;5054390;28;20304;-62
2021/01/22 05:23:05;;;;;;;3.67;0.73;;;10.80;99.90;;;;;;5054538;28;20112;-61
2021/01/22 05:25:32;;;;;;;2.35;0.80;;;10.80;99.90;;;;;;5054078;28;20029;-61
2021/01/22 05:27:59;;;;;;;3.72;1.00;;;10.80;99.90;;;;;;5054525;28;20033;-61
2021/01/22 05:30:29;;;;;;;2.92;0.80;;;10.90;99.90;;;;;;5054299;28;20159;-60
2021/01/22 05:33:28;;;;;;;2.17;0.77;;;10.90;99.90;;;;;;5053064;28;20087;-59
2021/01/22 05:35:53;;;;;;;3.38;0.93;;;11.00;99.90;;;;;;5031314;28;20259;-60
2021/01/22 05:38:39;;;;;;;3.20;0.60;;;11.00;99.90;;;;;;5053937;28;20408;-60
2021/01/22 05:41:08;;;;;;;4.05;0.70;;;11.10;99.90;;;;;;5052798;28;20036;-60
2021/01/22 05:43:37;;;;;;;5.28;0.77;;;11.10;99.90;;;;;;5053829;28;20091;-57
2021/01/22 05:46:14;;;;;;;2.00;0.98;;;11.20;99.90;;;;;;5054045;28;20058;-60
2021/01/22 05:48:42;;;;;;;1.23;0.60;;;11.10;99.90;;;;;;5039874;28;20026;-60
2021/01/22 05:51:08;;;;;;;1.30;0.50;;;11.10;99.90;;;;;;5033867;28;20033;-60
2021/01/22 05:53:43;;;;;;;3.75;0.63;;;11.10;99.90;;;;;;5032468;28;20026;-60
2021/01/22 05:56:11;;;;;;;1.73;0.50;;;11.10;99.90;;;;;;5032191;28;20133;-59
2021/01/22 05:58:40;;;;;;;3.42;1.20;;;11.00;99.90;;;;;;5032570;28;20029;-59
2021/01/22 06:01:26;;;;;;;2.83;0.63;;;11.00;99.90;;;;;;5032367;28;20037;-59
2021/01/22 06:04:06;;;;;;;1.67;0.68;;;11.00;99.90;;;;;;5033450;28;20034;-59
2021/01/22 06:06:33;;;;;;;4.07;0.75;;;11.10;99.90;;;;;;5032240;28;20026;-59
2021/01/22 06:09:00;;;;;;;1.77;0.50;;;11.00;99.90;;;;;;5032450;28;20037;-59
2021/01/22 06:11:28;;;;;;;4.47;0.93;;;11.00;99.90;;;;;;5033412;28;20075;-59
2021/01/22 06:14:03;;;;;;;2.65;0.85;;;11.00;99.90;;;;;;5033636;28;20479;-59
2021/01/22 06:16:30;;;;;;;1.35;0.50;;;11.00;99.90;;;;;;5033459;28;20063;-59
2021/01/22 06:19:08;;;;;;;3.70;0.73;;;10.90;99.90;;;;;;5046722;28;20033;-58
2021/01/22 06:21:50;;;;;;;5.78;1.40;;;11.00;99.90;;;;;;5051664;28;20033;-58
2021/01/22 06:24:17;;;;;;;2.30;1.10;;;11.00;99.90;;;;;;5052888;28;20036;-58
2021/01/22 06:26:43;;;;;;;2.05;0.75;;;11.00;99.90;;;;;;5051504;28;20032;-59
2021/01/22 06:29:10;;;;;;;0.82;0.40;;;11.00;99.90;;;;;;5051782;28;20029;-57
2021/01/22 06:31:41;;;;;;;2.83;0.60;;;11.00;99.90;;;;;;5052959;28;20035;-58
2021/01/22 06:34:09;;;;;;;2.45;0.75;;;11.00;99.90;;;;;;5052775;28;20061;-58
2021/01/22 06:36:36;;;;;;;2.58;0.52;;;11.00;99.90;;;;;;5051284;28;20037;-57
2021/01/22 06:39:04;;;;;;;1.73;0.60;;;11.10;99.90;;;;;;5051330;28;20025;-58
2021/01/22 06:41:31;;;;;;;1.17;0.60;;;11.00;99.90;;;;;;5051198;28;20025;-57
2021/01/22 06:43:59;;;;;;;3.20;0.73;;;11.00;99.90;;;;;;5052611;28;20051;-57
2021/01/22 06:46:28;;;;;;;2.15;0.82;;;11.00;99.90;;;;;;5034688;28;20040;-58
2021/01/22 06:48:55;;;;;;;0.98;0.50;;;11.00;99.90;;;;;;5046073;28;20255;-58
2021/01/22 06:51:30;;;;;;;1.20;0.70;;;10.90;99.90;;;;;;5049552;28;20033;-60
2021/01/22 06:54:10;;;;;;;1.40;0.75;;;10.90;99.90;;;;;;5010027;28;20034;-60
2021/01/22 06:56:48;;;;;;;1.65;0.65;;;10.80;99.90;;;;;;5010995;28;20033;-59
2021/01/22 06:59:20;;;;;;;2.35;0.75;;;10.80;99.90;;;;;;5012137;28;20045;-59
2021/01/22 07:01:48;;;;;;;3.67;0.88;;;10.90;99.90;;;;;;5011698;28;20040;-59
2021/01/22 07:04:41;;;;;;;1.13;0.50;;;10.80;99.90;;;;;;5010686;28;20038;-57
2021/01/22 07:07:10;;;;;;;2.60;0.63;;;10.80;99.90;;;;;;5027770;28;20030;-60
2021/01/22 07:09:42;;;;;;;2.83;0.60;;;10.80;99.90;;;;;;5010406;28;20036;-58
2021/01/22 07:12:09;;;;;;;1.63;0.65;;;10.80;99.90;;;;;;5010897;28;20040;-58
2021/01/22 07:14:47;;;;;;;0.82;0.57;;;10.80;99.90;;;;;;5011972;28;20061;-57
2021/01/22 07:17:19;;;;;;;1.10;0.60;;;10.80;99.90;;;;;;5026890;28;20112;-57
2021/01/22 07:19:54;;;;;;;4.60;0.73;;;10.60;99.90;;;;;;5032823;28;20048;-57
2021/01/22 07:22:21;;;;;;;1.77;0.70;;;10.50;99.90;;;;;;5031885;28;20047;-58
2021/01/22 07:24:53;;;;;;;0.65;0.35;;;10.40;99.90;;;;;;5031993;28;20030;-58
2021/01/22 07:27:19;;;;;;;2.25;0.70;;;10.40;99.90;;;;;;5030857;28;20083;-58
2021/01/22 07:30:11;;;;;;;2.17;0.60;;;10.40;99.90;;;;;;5032023;28;20108;-58
2021/01/22 07:32:37;;;;;;;;;;;10.30;99.90;;;;;;5032385;28;20033;-58
2021/01/22 07:35:06;;;;;;;11.43;1.85;;;10.20;99.90;;;;;;5030784;28;19920;-56
2021/01/22 07:37:40;;;;;;;2.15;0.73;;;10.10;99.90;;;;;;5031637;28;20044;-58
2021/01/22 07:40:10;;;;;;;1.25;0.57;;;10.00;99.90;;;;;;5030732;28;20029;-57
2021/01/22 07:42:37;;;;;;;2.85;0.65;;;10.00;99.90;;;;;;5031720;28;20075;-61
2021/01/22 07:45:12;;;;;;;1.65;0.77;;;10.00;99.90;;;;;;5030591;28;20038;-59
2021/01/22 07:47:44;;;;;;;5.38;1.35;;;9.90;99.90;;;;;;5035824;28;20044;-59
2021/01/22 07:50:21;;;;;;;6.35;1.08;;;9.90;99.90;;;;;;5050694;28;20033;-57
2021/01/22 07:52:50;;;;;;;1.20;0.82;;;9.90;99.90;;;;;;5051567;28;20033;-58
2021/01/22 07:55:18;;;;;;;2.60;1.30;;;9.90;99.90;;;;;;5051629;28;20132;-59
2021/01/22 07:57:59;;;;;;;7.82;1.55;;;10.00;99.90;;;;;;5050892;28;20036;-58
2021/01/22 08:00:35;;;;;;;1.27;0.68;;;10.00;99.90;;;;;;5048350;28;20037;-60
2021/01/22 08:03:01;;;;;;;5.43;0.82;;;9.90;99.90;;;;;;5030780;28;20048;-59
2021/01/22 08:05:31;;;;;;;2.90;0.75;;;10.00;99.90;;;;;;5030594;28;20034;-59
2021/01/22 08:07:58;;;;;;;4.20;1.40;;;10.00;99.90;;;;;;5030417;28;20064;-58
2021/01/22 08:10:29;;;;;;;2.95;0.90;;;10.00;99.90;;;;;;5030687;28;20124;-58
2021/01/22 08:13:00;;;;;;;5.75;0.95;;;10.00;99.90;;;;;;5030889;28;20128;-58
2021/01/22 08:15:28;;;;;;;3.20;0.90;;;10.00;99.90;;;;;;5031456;28;20052;-60
2021/01/22 08:17:54;;;;;;;2.75;1.17;;;10.00;99.90;;;;;;5025520;28;20262;-59
2021/01/22 08:20:22;;;;;;;3.65;0.95;;;9.90;99.90;;;;;;5011702;28;20034;-61
2021/01/22 08:22:56;;;;;;;6.07;1.13;;;10.00;99.90;;;;;;5010357;28;20112;-60
2021/01/22 08:25:35;;;;;;;3.17;1.70;;;10.00;99.90;;;;;;5011989;28;20041;-60
2021/01/22 08:28:04;;;;;;;2.58;0.95;;;10.00;99.90;;;;;;5010871;28;20030;-58
2021/01/22 08:30:30;;;;;;;3.20;1.02;;;10.00;99.90;;;;;;5011827;28;20041;-58
2021/01/22 08:32:57;;;;;;;7.65;1.00;;;10.00;99.90;;;;;;5010431;28;20045;-57
2021/01/22 08:35:25;;;;;;;3.85;0.93;;;10.10;99.90;;;;;;5010513;28;20064;-58
2021/01/22 08:37:53;;;;;;;3.15;0.70;;;10.10;99.90;;;;;;4994504;28;20083;-58
2021/01/22 08:40:20;;;;;;;3.78;1.15;;;10.10;99.90;;;;;;5010543;28;20033;-59
2021/01/22 08:43:08;;;;;;;3.25;1.20;;;10.20;99.90;;;;;;5011512;28;20030;-58
2021/01/22 08:45:37;;;;;;;3.92;1.02;;;10.20;99.90;;;;;;5010293;28;20040;-55
2021/01/22 08:48:04;;;;;;;5.70;0.80;;;10.20;99.90;;;;;;5019137;28;20041;-58
2021/01/22 08:50:30;;;;;;;2.50;0.93;;;10.20;99.90;;;;;;5031119;28;20041;-59
2021/01/22 08:53:09;;;;;;;4.57;1.40;;;10.30;99.90;;;;;;5034788;28;20108;-58
2021/01/22 08:55:40;;;;;;;4.93;0.95;;;10.40;99.90;;;;;;5034481;28;20049;-57
2021/01/22 08:58:10;;;;;;;3.00;0.90;;;10.40;99.90;;;;;;5033660;28;20037;-59
2021/01/22 09:00:40;;;;;;;9.47;1.13;;;10.40;99.90;;;;;;5031849;28;20072;-58
2021/01/22 09:03:23;;;;;;;2.00;1.10;;;10.40;99.90;;;;;;5034393;28;20029;-58
2021/01/22 09:05:55;;;;;;;4.13;1.15;;;10.30;99.90;;;;;;5034421;28;20041;-57
2021/01/22 09:08:22;;;;;;;4.72;0.93;;;10.30;99.90;;;;;;5034884;28;20033;-58
2021/01/22 09:10:52;;;;;;;8.02;1.45;;;10.20;99.90;;;;;;5033157;28;20116;-59
2021/01/22 09:13:25;;;;;;;1.55;0.82;;;10.10;99.90;;;;;;5034663;28;20117;-60
2021/01/22 09:16:06;;;;;;;1.48;0.70;;;9.90;99.90;;;;;;5034327;28;20120;-59
2021/01/22 09:18:32;;;;;;;1.63;0.88;;;9.10;99.90;;;;;;5022968;28;20055;-58
2021/01/22 09:21:06;;;;;;;1.42;0.70;;;8.30;99.90;;;;;;5013721;28;20030;-57
2021/01/22 09:23:35;;;;;;;1.55;0.60;;;7.90;99.90;;;;;;5014457;28;20105;-59
2021/01/22 09:26:01;;;;;;;1.08;0.50;;;7.50;99.90;;;;;;5014763;28;20113;-58
2021/01/22 09:28:28;;;;;;;1.33;0.40;;;7.20;99.90;;;;;;5014621;28;20049;-58
2021/01/22 09:30:53;;;;;;;0.98;0.50;;;7.10;99.90;;;;;;5014396;28;20029;-60
2021/01/22 09:33:19;;;;;;;0.60;0.35;;;6.90;99.90;;;;;;5014226;28;20033;-59
2021/01/22 09:35:45;;;;;;;0.80;0.60;;;6.80;99.90;;;;;;5012929;28;20183;-59
2021/01/22 09:38:12;;;;;;;1.02;0.60;;;6.80;99.90;;;;;;5014186;28;20127;-59
2021/01/22 09:40:38;;;;;;;0.63;0.40;;;6.70;99.90;;;;;;5014302;28;20032;-59
2021/01/22 09:43:04;;;;;;;1.27;0.40;;;6.60;99.90;;;;;;5014400;28;20030;-58
2021/01/22 09:45:30;;;;;;;0.65;0.38;;;6.60;99.90;;;;;;5014200;28;20038;-59
2021/01/22 09:47:56;;;;;;;2.00;0.80;;;6.50;99.90;;;;;;5021091;28;20032;-59
2021/01/22 09:50:23;;;;;;;0.73;0.40;;;6.50;99.90;;;;;;5049110;28;20053;-58
2021/01/22 09:52:48;;;;;;;1.50;0.50;;;6.40;99.90;;;;;;5032301;28;20037;-58
2021/01/22 09:55:17;;;;;;;0.88;0.50;;;6.40;99.90;;;;;;5033417;28;20061;-59
2021/01/22 09:57:43;;;;;;;1.08;0.60;;;6.30;99.90;;;;;;5033255;28;20083;-59
2021/01/22 10:00:14;;;;;;;1.35;0.60;;;6.30;99.90;;;;;;5033546;28;20033;-58
2021/01/22 10:02:41;;;;;;;2.40;0.50;;;6.20;99.90;;;;;;5032150;28;20037;-60
2021/01/22 10:05:07;;;;;;;3.13;0.50;;;6.10;99.90;;;;;;5033447;28;20033;-59
2021/01/22 10:07:34;;;;;;;1.35;0.60;;;6.10;99.90;;;;;;5033432;28;20035;-60
2021/01/22 10:10:00;;;;;;;2.17;0.40;;;6.20;99.90;;;;;;5032731;28;20034;-59
2021/01/22 10:12:26;;;;;;;0.52;0.30;;;6.20;99.90;;;;;;5032360;28;20041;-58
2021/01/22 10:14:52;;;;;;;1.10;0.40;;;6.30;99.90;;;;;;5033166;28;20033;-58
2021/01/22 10:17:18;;;;;;;1.15;0.40;;;6.30;99.90;;;;;;5031766;28;20041;-58
2021/01/22 10:19:44;;;;;;;0.85;0.57;;;6.10;99.90;;;;;;5013574;28;20026;-59
2021/01/22 10:22:10;;;;;;;1.20;0.35;;;6.10;99.90;;;;;;5013052;28;20030;-58
2021/01/22 10:24:36;;;;;;;1.15;0.40;;;6.00;99.90;;;;;;5013515;28;20030;-59
2021/01/22 10:27:02;;;;;;;1.65;0.60;;;5.90;99.90;;;;;;5012004;28;20449;-59
2021/01/22 10:29:28;;;;;;;2.97;0.50;;;5.90;99.90;;;;;;5013417;28;20034;-59
2021/01/22 10:31:54;;;;;;;0.50;0.40;;;5.80;99.90;;;;;;5011946;28;20223;-59
2021/01/22 10:34:20;;;;;;;0.80;0.30;;;5.80;99.90;;;;;;5013268;28;20031;-59
2021/01/22 10:36:46;;;;;;;1.35;0.50;;;5.70;99.90;;;;;;5011896;28;20175;-59
2021/01/22 10:39:12;;;;;;;1.00;0.40;;;5.70;99.90;;;;;;5011655;28;20131;-59
2021/01/22 10:41:38;;;;;;;1.98;0.75;;;5.70;99.90;;;;;;5012708;28;20032;-60
2021/01/22 10:44:04;;;;;;;1.20;0.60;;;5.60;99.90;;;;;;5012878;28;20030;-58
2021/01/22 10:46:31;;;;;;;2.08;0.70;;;5.60;99.90;;;;;;5011763;28;20095;-57
2021/01/22 10:48:59;;;;;;;1.73;0.75;;;5.60;99.90;;;;;;5026268;28;20037;-59
2021/01/22 10:51:25;;;;;;;1.73;0.70;;;5.50;99.90;;;;;;5031454;28;20045;-59
2021/01/22 10:53:51;;;;;;;1.85;0.85;;;5.60;99.90;;;;;;5032615;28;20036;-59
2021/01/22 10:56:17;;;;;;;2.65;0.40;;;5.60;99.90;;;;;;5029178;28;20049;-59
2021/01/22 10:58:43;;;;;;;0.50;0.43;;;5.60;99.90;;;;;;5032625;28;20026;-59
2021/01/22 11:01:09;;;;;;;0.88;0.52;;;5.70;99.90;;;;;;5032541;28;20107;-59
2021/01/22 11:03:38;;;;;;;1.77;0.40;;;5.70;99.90;;;;;;5032393;28;20041;-59
2021/01/22 11:06:08;;;;;;;0.70;0.40;;;5.60;99.90;;;;;;5031102;28;20046;-59
2021/01/22 11:08:34;;;;;;;0.43;0.30;;;5.50;99.90;;;;;;5032125;28;20112;-58
2021/01/22 11:11:00;;;;;;;0.50;0.35;;;5.50;99.90;;;;;;5032002;28;20034;-57
2021/01/22 11:13:26;;;;;;;2.35;0.47;;;5.60;99.90;;;;;;5031510;28;20044;-61
2021/01/22 11:15:52;;;;;;;0.40;0.35;;;5.50;99.90;;;;;;5017022;28;20030;-59
2021/01/22 11:18:18;;;;;;;1.38;0.40;;;5.50;99.90;;;;;;5021397;28;20116;-57
2021/01/22 11:20:44;;;;;;;0.50;0.35;;;5.50;99.90;;;;;;4992429;28;20132;-60
2021/01/22 11:23:10;;;;;;;0.35;0.30;;;5.50;99.90;;;;;;4993041;28;20033;-59
2021/01/22 11:25:36;;;;;;;0.55;0.40;;;5.60;99.90;;;;;;5012530;28;20029;-59
2021/01/22 11:28:02;;;;;;;2.00;0.47;;;5.60;99.90;;;;;;5012031;28;20026;-59
2021/01/22 11:30:28;;;;;;;0.25;0.20;;;5.60;99.90;;;;;;5011225;28;20121;-59
2021/01/22 11:32:54;;;;;;;0.40;0.32;;;5.60;99.90;;;;;;5012195;28;20049;-58
2021/01/22 11:35:20;;;;;;;0.63;0.40;;;5.60;99.90;;;;;;5012186;28;20029;-58
2021/01/22 11:37:47;;;;;;;1.60;0.60;;;5.60;99.90;;;;;;5011857;28;20104;-61
2021/01/22 11:40:14;;;;;;;3.63;0.40;;;5.40;99.90;;;;;;5012328;28;20112;-58
2021/01/22 11:42:40;;;;;;;0.85;0.47;;;5.50;99.90;;;;;;5011989;28;20065;-57
2021/01/22 11:45:07;;;;;;;1.65;0.50;;;5.40;99.90;;;;;;5011092;28;20033;-57
2021/01/22 11:47:34;;;;;;;0.70;0.38;;;5.50;99.90;;;;;;5015781;28;20108;-57
2021/01/22 11:49:59;;;;;;;0.77;0.32;;;5.50;99.90;;;;;;5046858;28;20121;-58
2021/01/22 11:52:25;;;;;;;1.83;0.60;;;5.40;99.90;;;;;;5031810;28;20087;-57
2021/01/22 11:54:51;;;;;;;0.60;0.20;;;5.30;99.90;;;;;;5031373;28;20049;-59
2021/01/22 11:57:17;;;;;;;2.42;0.73;;;5.30;99.90;;;;;;5031937;28;20060;-59
2021/01/22 11:59:43;;;;;;;1.27;0.60;;;5.30;99.90;;;;;;5031759;28;20029;-58
2021/01/22 12:02:09;;;;;;;1.20;0.38;;;5.30;99.90;;;;;;5031594;28;20030;-59
2021/01/22 12:04:35;;;;;;;2.33;0.50;;;5.30;99.90;;;;;;5031552;28;20104;-57
2021/01/22 12:07:01;;;;;;;2.55;0.52;;;5.30;99.90;;;;;;5030452;28;20030;-57
2021/01/22 12:09:27;;;;;;;1.33;0.43;;;5.20;99.90;;;;;;5031765;28;20057;-57
2021/01/22 12:11:54;;;;;;;0.88;0.40;;;5.10;99.90;;;;;;5031509;28;20069;-57
2021/01/22 12:14:20;;;;;;;2.22;0.40;;;5.00;99.90;;;;;;5031807;28;20025;-56
2021/01/22 12:16:46;;;;;;;0.60;0.40;;;5.00;99.90;;;;;;5031313;28;20044;-57
2021/01/22 12:19:12;;;;;;;1.23;0.55;;;5.10;99.90;;;;;;5014405;28;20130;-55
2021/01/22 12:21:38;;;;;;;1.67;0.70;;;5.10;99.90;;;;;;5012009;28;20037;-57
2021/01/22 12:24:04;;;;;;;1.70;0.50;;;5.00;99.90;;;;;;5011571;28;20030;-58
2021/01/22 12:26:30;;;;;;;0.30;0.30;;;5.00;99.90;;;;;;5015469;28;20104;-58
2021/01/22 12:28:56;;;;;;;3.20;0.70;;;5.00;99.90;;;;;;5015282;28;20062;-56
2021/01/22 12:31:22;;;;;;;3.22;0.70;;;5.00;99.90;;;;;;5015515;28;20059;-56
2021/01/22 12:33:48;;;;;;;2.60;0.73;;;5.00;99.90;;;;;;5015360;28;20026;-56
2021/01/22 12:36:14;;;;;;;1.42;0.50;;;5.00;99.90;;;;;;5015204;28;20033;-57
2021/01/22 12:38:40;;;;;;;1.50;0.82;;;4.90;99.90;;;;;;5010279;28;20037;-57
2021/01/22 12:41:06;;;;;;;0.65;0.45;;;4.90;99.90;;;;;;5005971;28;20038;-58
2021/01/22 12:43:33;;;;;;;0.73;0.50;;;5.00;99.90;;;;;;5004179;28;20033;-57
2021/01/22 12:46:02;;;;;;;2.40;0.45;;;5.00;99.90;;;;;;5014964;28;20049;-57
2021/01/22 12:48:28;;;;;;;0.57;0.45;;;5.00;99.90;;;;;;5026523;28;20036;-57
2021/01/22 12:50:55;;;;;;;0.73;0.60;;;4.90;99.90;;;;;;5034634;28;20041;-57
2021/01/22 12:53:21;;;;;;;1.33;0.50;;;4.90;99.90;;;;;;5035057;28;20057;-54
2021/01/22 12:55:47;;;;;;;1.95;0.50;;;4.90;99.90;;;;;;5034070;28;20065;-55